sensor_id;sensor_type;location;lat;lon;timestamp;P1;durP1;ratioP1;P2;durP2;ratioP2
28353;SDS011;15603;50.878;8.036;2023-03-20T00:01:22;11.52;;;4.22;;
28353;SDS011;15603;50.878;8.036;2023-03-20T00:03:52;8.27;;;5.25;;
28353;SDS011;15603;50.878;8.036;2023-03-20T00:06:23;11.00;;;4.47;;
28353;SDS011;15603;50.878;8.036;2023-03-20T00:08:52;10.45;;;5.20;;
28353;SDS011;15603;50.878;8.036;2023-03-20T00:13:58;10.25;;;5.25;;
28353;SDS011;15603;50.878;8.036;2023-03-20T00:16:29;15.93;;;6.93;;
28353;SDS011;15603;50.878;8.036;2023-03-20T00:18:59;22.60;;;11.65;;
28353;SDS011;15603;50.878;8.036;2023-03-20T00:21:26;18.27;;;9.65;;
28353;SDS011;15603;50.878;8.036;2023-03-20T00:23:53;19.10;;;9.90;;
28353;SDS011;15603;50.878;8.036;2023-03-20T00:26:23;20.30;;;9.63;;
28353;SDS011;15603;50.878;8.036;2023-03-20T00:31:29;16.88;;;9.43;;
28353;SDS011;15603;50.878;8.036;2023-03-20T00:33:59;14.75;;;8.15;;
28353;SDS011;15603;50.878;8.036;2023-03-20T00:36:28;36.15;;;12.75;;
28353;SDS011;15603;50.878;8.036;2023-03-20T00:38:55;20.05;;;11.88;;
28353;SDS011;15603;50.878;8.036;2023-03-20T00:43:54;21.58;;;11.18;;
28353;SDS011;15603;50.878;8.036;2023-03-20T00:46:25;24.50;;;12.88;;
28353;SDS011;15603;50.878;8.036;2023-03-20T00:48:53;30.30;;;15.43;;
28353;SDS011;15603;50.878;8.036;2023-03-20T00:51:21;33.03;;;13.35;;
28353;SDS011;15603;50.878;8.036;2023-03-20T00:53:50;29.40;;;14.82;;
28353;SDS011;15603;50.878;8.036;2023-03-20T00:56:27;27.15;;;13.40;;
28353;SDS011;15603;50.878;8.036;2023-03-20T00:58:58;32.38;;;16.55;;
28353;SDS011;15603;50.878;8.036;2023-03-20T01:01:27;31.65;;;17.60;;
28353;SDS011;15603;50.878;8.036;2023-03-20T01:03:56;35.20;;;17.70;;
28353;SDS011;15603;50.878;8.036;2023-03-20T01:06:24;34.83;;;17.77;;
28353;SDS011;15603;50.878;8.036;2023-03-20T01:08:51;36.13;;;17.63;;
28353;SDS011;15603;50.878;8.036;2023-03-20T01:11:20;34.47;;;17.98;;
28353;SDS011;15603;50.878;8.036;2023-03-20T01:13:49;27.30;;;16.98;;
28353;SDS011;15603;50.878;8.036;2023-03-20T01:16:19;34.92;;;18.27;;
28353;SDS011;15603;50.878;8.036;2023-03-20T01:18:48;48.08;;;21.92;;
28353;SDS011;15603;50.878;8.036;2023-03-20T01:21:17;42.50;;;20.38;;
28353;SDS011;15603;50.878;8.036;2023-03-20T01:23:45;49.75;;;22.58;;
28353;SDS011;15603;50.878;8.036;2023-03-20T01:26:30;46.40;;;22.25;;
28353;SDS011;15603;50.878;8.036;2023-03-20T01:29:02;48.13;;;24.10;;
28353;SDS011;15603;50.878;8.036;2023-03-20T01:31:32;49.50;;;23.25;;
28353;SDS011;15603;50.878;8.036;2023-03-20T01:33:59;43.38;;;22.95;;
28353;SDS011;15603;50.878;8.036;2023-03-20T01:36:26;53.20;;;22.73;;
28353;SDS011;15603;50.878;8.036;2023-03-20T01:38:54;55.30;;;24.58;;
28353;SDS011;15603;50.878;8.036;2023-03-20T01:41:24;41.25;;;21.83;;
28353;SDS011;15603;50.878;8.036;2023-03-20T01:43:53;54.90;;;22.90;;
28353;SDS011;15603;50.878;8.036;2023-03-20T01:46:25;50.50;;;23.20;;
28353;SDS011;15603;50.878;8.036;2023-03-20T01:51:47;53.40;;;24.83;;
28353;SDS011;15603;50.878;8.036;2023-03-20T01:54:29;54.92;;;25.95;;
28353;SDS011;15603;50.878;8.036;2023-03-20T01:57:09;67.60;;;27.40;;
28353;SDS011;15603;50.878;8.036;2023-03-20T01:59:42;53.78;;;28.35;;
28353;SDS011;15603;50.878;8.036;2023-03-20T02:02:15;61.08;;;27.52;;
28353;SDS011;15603;50.878;8.036;2023-03-20T02:04:45;77.95;;;31.27;;
28353;SDS011;15603;50.878;8.036;2023-03-20T02:07:16;74.20;;;32.83;;
28353;SDS011;15603;50.878;8.036;2023-03-20T02:09:56;78.05;;;35.42;;
28353;SDS011;15603;50.878;8.036;2023-03-20T02:12:35;85.53;;;37.97;;
28353;SDS011;15603;50.878;8.036;2023-03-20T02:15:04;93.10;;;37.90;;
28353;SDS011;15603;50.878;8.036;2023-03-20T02:17:53;94.47;;;37.13;;
28353;SDS011;15603;50.878;8.036;2023-03-20T02:20:32;97.65;;;38.70;;
28353;SDS011;15603;50.878;8.036;2023-03-20T02:34:07;54.72;;;24.52;;
28353;SDS011;15603;50.878;8.036;2023-03-20T02:42:58;43.40;;;20.35;;
28353;SDS011;15603;50.878;8.036;2023-03-20T02:45:30;45.53;;;21.15;;
28353;SDS011;15603;50.878;8.036;2023-03-20T02:56:31;45.13;;;21.30;;
28353;SDS011;15603;50.878;8.036;2023-03-20T03:01:35;51.50;;;17.90;;
28353;SDS011;15603;50.878;8.036;2023-03-20T03:04:10;45.38;;;19.63;;
28353;SDS011;15603;50.878;8.036;2023-03-20T03:06:42;41.28;;;17.65;;
28353;SDS011;15603;50.878;8.036;2023-03-20T03:09:20;40.90;;;18.17;;
28353;SDS011;15603;50.878;8.036;2023-03-20T03:14:37;51.00;;;16.85;;
28353;SDS011;15603;50.878;8.036;2023-03-20T03:17:12;46.63;;;18.38;;
28353;SDS011;15603;50.878;8.036;2023-03-20T03:19:44;39.08;;;16.80;;
28353;SDS011;15603;50.878;8.036;2023-03-20T03:22:15;44.17;;;17.08;;
28353;SDS011;15603;50.878;8.036;2023-03-20T03:24:44;42.22;;;16.15;;
28353;SDS011;15603;50.878;8.036;2023-03-20T03:27:26;33.22;;;14.07;;
28353;SDS011;15603;50.878;8.036;2023-03-20T03:29:59;35.60;;;15.25;;
28353;SDS011;15603;50.878;8.036;2023-03-20T03:32:31;34.05;;;14.48;;
28353;SDS011;15603;50.878;8.036;2023-03-20T03:35:01;35.65;;;16.65;;
28353;SDS011;15603;50.878;8.036;2023-03-20T03:37:48;36.00;;;16.67;;
28353;SDS011;15603;50.878;8.036;2023-03-20T03:40:42;33.50;;;17.13;;
28353;SDS011;15603;50.878;8.036;2023-03-20T03:43:14;36.58;;;14.80;;
28353;SDS011;15603;50.878;8.036;2023-03-20T03:45:53;35.33;;;16.60;;
28353;SDS011;15603;50.878;8.036;2023-03-20T03:48:56;35.92;;;16.00;;
28353;SDS011;15603;50.878;8.036;2023-03-20T03:51:25;41.80;;;16.42;;
28353;SDS011;15603;50.878;8.036;2023-03-20T03:54:07;39.65;;;16.10;;
28353;SDS011;15603;50.878;8.036;2023-03-20T03:56:39;36.40;;;17.38;;
28353;SDS011;15603;50.878;8.036;2023-03-20T03:59:12;38.15;;;18.20;;
28353;SDS011;15603;50.878;8.036;2023-03-20T04:01:48;42.03;;;19.48;;
28353;SDS011;15603;50.878;8.036;2023-03-20T04:04:18;45.13;;;18.85;;
28353;SDS011;15603;50.878;8.036;2023-03-20T04:06:47;39.50;;;18.02;;
28353;SDS011;15603;50.878;8.036;2023-03-20T04:09:15;43.20;;;18.08;;
28353;SDS011;15603;50.878;8.036;2023-03-20T04:11:42;40.35;;;19.92;;
28353;SDS011;15603;50.878;8.036;2023-03-20T04:14:12;38.70;;;18.50;;
28353;SDS011;15603;50.878;8.036;2023-03-20T04:16:40;42.30;;;18.88;;
28353;SDS011;15603;50.878;8.036;2023-03-20T04:19:08;42.90;;;19.08;;
28353;SDS011;15603;50.878;8.036;2023-03-20T04:21:35;40.08;;;19.30;;
28353;SDS011;15603;50.878;8.036;2023-03-20T04:24:02;40.50;;;18.77;;
28353;SDS011;15603;50.878;8.036;2023-03-20T04:26:29;37.42;;;17.33;;
28353;SDS011;15603;50.878;8.036;2023-03-20T04:28:57;40.90;;;17.88;;
28353;SDS011;15603;50.878;8.036;2023-03-20T04:31:51;42.67;;;19.02;;
28353;SDS011;15603;50.878;8.036;2023-03-20T04:34:31;46.17;;;19.52;;
28353;SDS011;15603;50.878;8.036;2023-03-20T04:37:20;48.42;;;19.00;;
28353;SDS011;15603;50.878;8.036;2023-03-20T04:39:55;41.03;;;18.85;;
28353;SDS011;15603;50.878;8.036;2023-03-20T04:42:22;50.28;;;20.13;;
28353;SDS011;15603;50.878;8.036;2023-03-20T04:44:54;39.80;;;19.45;;
28353;SDS011;15603;50.878;8.036;2023-03-20T04:47:22;44.40;;;18.25;;
28353;SDS011;15603;50.878;8.036;2023-03-20T04:49:50;40.60;;;19.55;;
28353;SDS011;15603;50.878;8.036;2023-03-20T04:52:18;41.25;;;19.55;;
28353;SDS011;15603;50.878;8.036;2023-03-20T04:54:45;43.20;;;20.20;;
28353;SDS011;15603;50.878;8.036;2023-03-20T04:57:12;44.65;;;21.00;;
28353;SDS011;15603;50.878;8.036;2023-03-20T04:59:39;47.08;;;22.83;;
28353;SDS011;15603;50.878;8.036;2023-03-20T05:02:06;43.63;;;21.83;;
28353;SDS011;15603;50.878;8.036;2023-03-20T05:04:33;44.22;;;21.02;;
28353;SDS011;15603;50.878;8.036;2023-03-20T05:07:01;48.83;;;22.67;;
28353;SDS011;15603;50.878;8.036;2023-03-20T05:09:37;43.78;;;21.42;;
28353;SDS011;15603;50.878;8.036;2023-03-20T05:12:05;41.97;;;22.00;;
28353;SDS011;15603;50.878;8.036;2023-03-20T05:14:55;43.50;;;22.52;;
28353;SDS011;15603;50.878;8.036;2023-03-20T05:17:32;44.40;;;21.65;;
28353;SDS011;15603;50.878;8.036;2023-03-20T05:20:28;45.22;;;22.08;;
28353;SDS011;15603;50.878;8.036;2023-03-20T05:23:21;46.10;;;22.60;;
28353;SDS011;15603;50.878;8.036;2023-03-20T05:25:53;40.63;;;19.80;;
28353;SDS011;15603;50.878;8.036;2023-03-20T05:28:35;39.92;;;19.80;;
28353;SDS011;15603;50.878;8.036;2023-03-20T05:31:12;45.40;;;20.05;;
28353;SDS011;15603;50.878;8.036;2023-03-20T05:34:09;43.47;;;20.65;;
28353;SDS011;15603;50.878;8.036;2023-03-20T05:36:42;37.60;;;20.90;;
28353;SDS011;15603;50.878;8.036;2023-03-20T05:39:25;42.45;;;19.77;;
28353;SDS011;15603;50.878;8.036;2023-03-20T05:42:11;40.40;;;19.67;;
28353;SDS011;15603;50.878;8.036;2023-03-20T05:44:57;42.22;;;20.52;;
28353;SDS011;15603;50.878;8.036;2023-03-20T05:47:44;40.60;;;20.33;;
28353;SDS011;15603;50.878;8.036;2023-03-20T05:50:41;45.20;;;21.45;;
28353;SDS011;15603;50.878;8.036;2023-03-20T05:53:35;44.70;;;21.63;;
28353;SDS011;15603;50.878;8.036;2023-03-20T05:56:21;42.28;;;21.70;;
28353;SDS011;15603;50.878;8.036;2023-03-20T05:59:09;46.58;;;22.70;;
28353;SDS011;15603;50.878;8.036;2023-03-20T06:01:58;46.33;;;22.23;;
28353;SDS011;15603;50.878;8.036;2023-03-20T06:04:29;46.08;;;22.35;;
28353;SDS011;15603;50.878;8.036;2023-03-20T06:07:15;44.65;;;22.30;;
28353;SDS011;15603;50.878;8.036;2023-03-20T06:09:47;51.25;;;24.23;;
28353;SDS011;15603;50.878;8.036;2023-03-20T06:12:15;46.53;;;22.02;;
28353;SDS011;15603;50.878;8.036;2023-03-20T06:14:42;50.47;;;23.30;;
28353;SDS011;15603;50.878;8.036;2023-03-20T06:17:10;50.35;;;23.50;;
28353;SDS011;15603;50.878;8.036;2023-03-20T06:19:38;52.90;;;24.30;;
28353;SDS011;15603;50.878;8.036;2023-03-20T06:22:05;52.88;;;24.23;;
28353;SDS011;15603;50.878;8.036;2023-03-20T06:24:32;45.50;;;22.10;;
28353;SDS011;15603;50.878;8.036;2023-03-20T06:27:00;43.63;;;21.80;;
28353;SDS011;15603;50.878;8.036;2023-03-20T06:29:27;44.78;;;23.05;;
28353;SDS011;15603;50.878;8.036;2023-03-20T06:32:07;51.03;;;24.17;;
28353;SDS011;15603;50.878;8.036;2023-03-20T06:34:35;53.17;;;24.70;;
28353;SDS011;15603;50.878;8.036;2023-03-20T06:37:03;51.13;;;24.20;;
28353;SDS011;15603;50.878;8.036;2023-03-20T06:39:30;50.58;;;25.23;;
28353;SDS011;15603;50.878;8.036;2023-03-20T06:41:57;53.10;;;23.88;;
28353;SDS011;15603;50.878;8.036;2023-03-20T06:44:25;55.10;;;27.35;;
28353;SDS011;15603;50.878;8.036;2023-03-20T06:47:09;57.25;;;23.00;;
28353;SDS011;15603;50.878;8.036;2023-03-20T06:49:36;50.35;;;23.80;;
28353;SDS011;15603;50.878;8.036;2023-03-20T06:52:04;52.58;;;22.35;;
28353;SDS011;15603;50.878;8.036;2023-03-20T06:54:32;44.08;;;21.08;;
28353;SDS011;15603;50.878;8.036;2023-03-20T06:56:59;39.38;;;20.48;;
28353;SDS011;15603;50.878;8.036;2023-03-20T06:59:26;39.65;;;19.85;;
28353;SDS011;15603;50.878;8.036;2023-03-20T07:01:56;43.67;;;20.67;;
28353;SDS011;15603;50.878;8.036;2023-03-20T07:04:24;40.60;;;19.55;;
28353;SDS011;15603;50.878;8.036;2023-03-20T07:06:55;44.60;;;20.80;;
28353;SDS011;15603;50.878;8.036;2023-03-20T07:09:22;47.22;;;21.45;;
28353;SDS011;15603;50.878;8.036;2023-03-20T07:11:50;42.85;;;20.38;;
28353;SDS011;15603;50.878;8.036;2023-03-20T07:14:17;78.63;;;24.27;;
28353;SDS011;15603;50.878;8.036;2023-03-20T07:16:49;41.33;;;19.73;;
28353;SDS011;15603;50.878;8.036;2023-03-20T07:19:17;42.33;;;20.63;;
28353;SDS011;15603;50.878;8.036;2023-03-20T07:21:48;45.53;;;19.95;;
28353;SDS011;15603;50.878;8.036;2023-03-20T07:24:18;47.10;;;21.85;;
28353;SDS011;15603;50.878;8.036;2023-03-20T07:26:45;39.08;;;19.80;;
28353;SDS011;15603;50.878;8.036;2023-03-20T07:29:13;47.03;;;21.10;;
28353;SDS011;15603;50.878;8.036;2023-03-20T07:31:40;41.03;;;20.00;;
28353;SDS011;15603;50.878;8.036;2023-03-20T07:34:12;48.55;;;21.50;;
28353;SDS011;15603;50.878;8.036;2023-03-20T07:36:40;43.35;;;20.80;;
28353;SDS011;15603;50.878;8.036;2023-03-20T07:39:08;38.35;;;19.77;;
28353;SDS011;15603;50.878;8.036;2023-03-20T07:41:38;45.90;;;21.52;;
28353;SDS011;15603;50.878;8.036;2023-03-20T07:44:08;40.33;;;19.83;;
28353;SDS011;15603;50.878;8.036;2023-03-20T07:46:44;42.90;;;20.98;;
28353;SDS011;15603;50.878;8.036;2023-03-20T07:49:15;49.47;;;21.13;;
28353;SDS011;15603;50.878;8.036;2023-03-20T07:51:46;44.30;;;20.80;;
28353;SDS011;15603;50.878;8.036;2023-03-20T07:54:14;47.25;;;22.63;;
28353;SDS011;15603;50.878;8.036;2023-03-20T07:56:42;41.00;;;20.55;;
28353;SDS011;15603;50.878;8.036;2023-03-20T07:59:09;43.95;;;20.90;;
28353;SDS011;15603;50.878;8.036;2023-03-20T08:01:37;45.47;;;21.20;;
28353;SDS011;15603;50.878;8.036;2023-03-20T08:04:04;40.05;;;21.17;;
28353;SDS011;15603;50.878;8.036;2023-03-20T08:06:31;38.17;;;19.98;;
28353;SDS011;15603;50.878;8.036;2023-03-20T08:08:59;35.88;;;18.15;;
28353;SDS011;15603;50.878;8.036;2023-03-20T08:11:26;35.85;;;17.80;;
28353;SDS011;15603;50.878;8.036;2023-03-20T08:13:53;45.35;;;18.85;;
28353;SDS011;15603;50.878;8.036;2023-03-20T08:16:20;36.97;;;17.08;;
28353;SDS011;15603;50.878;8.036;2023-03-20T08:18:47;33.05;;;16.63;;
28353;SDS011;15603;50.878;8.036;2023-03-20T08:21:16;44.90;;;20.27;;
28353;SDS011;15603;50.878;8.036;2023-03-20T08:23:43;35.45;;;16.23;;
28353;SDS011;15603;50.878;8.036;2023-03-20T08:26:10;32.17;;;16.05;;
28353;SDS011;15603;50.878;8.036;2023-03-20T08:28:38;32.92;;;15.45;;
28353;SDS011;15603;50.878;8.036;2023-03-20T08:31:14;32.55;;;16.08;;
28353;SDS011;15603;50.878;8.036;2023-03-20T08:33:43;32.55;;;16.20;;
28353;SDS011;15603;50.878;8.036;2023-03-20T08:36:11;31.92;;;16.05;;
28353;SDS011;15603;50.878;8.036;2023-03-20T08:38:41;40.88;;;17.92;;
28353;SDS011;15603;50.878;8.036;2023-03-20T08:41:08;29.02;;;14.88;;
28353;SDS011;15603;50.878;8.036;2023-03-20T08:43:35;26.25;;;12.40;;
28353;SDS011;15603;50.878;8.036;2023-03-20T08:46:02;26.45;;;12.93;;
28353;SDS011;15603;50.878;8.036;2023-03-20T08:48:30;24.77;;;12.18;;
28353;SDS011;15603;50.878;8.036;2023-03-20T08:50:57;25.23;;;11.95;;
28353;SDS011;15603;50.878;8.036;2023-03-20T08:53:24;24.67;;;11.82;;
28353;SDS011;15603;50.878;8.036;2023-03-20T08:55:52;23.23;;;10.77;;
28353;SDS011;15603;50.878;8.036;2023-03-20T08:58:20;19.95;;;10.18;;
28353;SDS011;15603;50.878;8.036;2023-03-20T09:00:47;26.35;;;12.65;;
28353;SDS011;15603;50.878;8.036;2023-03-20T09:03:15;22.83;;;10.25;;
28353;SDS011;15603;50.878;8.036;2023-03-20T09:05:45;24.67;;;9.68;;
28353;SDS011;15603;50.878;8.036;2023-03-20T09:08:14;23.08;;;10.20;;
28353;SDS011;15603;50.878;8.036;2023-03-20T09:10:41;17.70;;;8.88;;
28353;SDS011;15603;50.878;8.036;2023-03-20T09:13:08;19.23;;;9.63;;
28353;SDS011;15603;50.878;8.036;2023-03-20T09:15:53;21.10;;;9.18;;
28353;SDS011;15603;50.878;8.036;2023-03-20T09:18:21;17.25;;;9.18;;
28353;SDS011;15603;50.878;8.036;2023-03-20T09:20:49;21.90;;;10.27;;
28353;SDS011;15603;50.878;8.036;2023-03-20T09:23:16;14.48;;;8.15;;
28353;SDS011;15603;50.878;8.036;2023-03-20T09:25:45;22.55;;;10.25;;
28353;SDS011;15603;50.878;8.036;2023-03-20T09:28:13;31.40;;;10.50;;
28353;SDS011;15603;50.878;8.036;2023-03-20T09:30:40;21.83;;;10.63;;
28353;SDS011;15603;50.878;8.036;2023-03-20T09:33:09;19.48;;;10.18;;
28353;SDS011;15603;50.878;8.036;2023-03-20T09:35:37;18.15;;;9.18;;
28353;SDS011;15603;50.878;8.036;2023-03-20T09:38:04;20.90;;;10.13;;
28353;SDS011;15603;50.878;8.036;2023-03-20T09:40:37;23.23;;;9.57;;
28353;SDS011;15603;50.878;8.036;2023-03-20T09:49:06;19.85;;;9.45;;
28353;SDS011;15603;50.878;8.036;2023-03-20T09:51:39;23.38;;;10.75;;
28353;SDS011;15603;50.878;8.036;2023-03-20T09:56:51;21.35;;;10.23;;
28353;SDS011;15603;50.878;8.036;2023-03-20T09:59:19;17.77;;;8.60;;
28353;SDS011;15603;50.878;8.036;2023-03-20T10:01:50;14.57;;;7.35;;
28353;SDS011;15603;50.878;8.036;2023-03-20T10:04:20;17.55;;;8.45;;
28353;SDS011;15603;50.878;8.036;2023-03-20T10:06:52;17.80;;;8.38;;
28353;SDS011;15603;50.878;8.036;2023-03-20T10:09:21;15.32;;;7.22;;
28353;SDS011;15603;50.878;8.036;2023-03-20T10:14:41;14.00;;;7.40;;
28353;SDS011;15603;50.878;8.036;2023-03-20T10:19:50;14.25;;;7.05;;
28353;SDS011;15603;50.878;8.036;2023-03-20T10:22:27;20.88;;;7.38;;
28353;SDS011;15603;50.878;8.036;2023-03-20T10:25:07;13.63;;;6.03;;
28353;SDS011;15603;50.878;8.036;2023-03-20T10:27:47;13.80;;;6.28;;
28353;SDS011;15603;50.878;8.036;2023-03-20T10:35:48;14.15;;;4.90;;
28353;SDS011;15603;50.878;8.036;2023-03-20T10:38:34;16.05;;;5.38;;
28353;SDS011;15603;50.878;8.036;2023-03-20T10:41:09;10.48;;;5.38;;
28353;SDS011;15603;50.878;8.036;2023-03-20T10:43:43;8.27;;;4.95;;
28353;SDS011;15603;50.878;8.036;2023-03-20T10:46:14;14.98;;;6.22;;
28353;SDS011;15603;50.878;8.036;2023-03-20T10:54:32;11.45;;;4.88;;
28353;SDS011;15603;50.878;8.036;2023-03-20T10:57:02;11.57;;;4.40;;
28353;SDS011;15603;50.878;8.036;2023-03-20T10:59:33;7.72;;;3.85;;
28353;SDS011;15603;50.878;8.036;2023-03-20T11:02:08;8.95;;;3.70;;
28353;SDS011;15603;50.878;8.036;2023-03-20T11:04:39;6.65;;;3.80;;
28353;SDS011;15603;50.878;8.036;2023-03-20T11:07:23;7.85;;;4.15;;
28353;SDS011;15603;50.878;8.036;2023-03-20T11:12:34;8.00;;;3.42;;
28353;SDS011;15603;50.878;8.036;2023-03-20T11:15:11;6.65;;;3.67;;
28353;SDS011;15603;50.878;8.036;2023-03-20T11:17:53;8.02;;;3.40;;
28353;SDS011;15603;50.878;8.036;2023-03-20T11:20:22;10.73;;;2.72;;
28353;SDS011;15603;50.878;8.036;2023-03-20T11:22:49;5.60;;;3.20;;
28353;SDS011;15603;50.878;8.036;2023-03-20T11:25:36;9.80;;;1.92;;
28353;SDS011;15603;50.878;8.036;2023-03-20T11:28:18;4.65;;;2.28;;
28353;SDS011;15603;50.878;8.036;2023-03-20T11:30:47;7.40;;;2.53;;
28353;SDS011;15603;50.878;8.036;2023-03-20T11:33:31;8.23;;;2.45;;
28353;SDS011;15603;50.878;8.036;2023-03-20T11:36:04;4.10;;;2.30;;
28353;SDS011;15603;50.878;8.036;2023-03-20T11:38:43;3.47;;;1.88;;
28353;SDS011;15603;50.878;8.036;2023-03-20T11:41:27;12.27;;;2.28;;
28353;SDS011;15603;50.878;8.036;2023-03-20T11:43:54;6.60;;;2.28;;
28353;SDS011;15603;50.878;8.036;2023-03-20T11:46:22;7.68;;;2.75;;
28353;SDS011;15603;50.878;8.036;2023-03-20T11:49:06;6.88;;;2.35;;
28353;SDS011;15603;50.878;8.036;2023-03-20T11:51:46;8.98;;;2.22;;
28353;SDS011;15603;50.878;8.036;2023-03-20T11:54:18;8.68;;;3.25;;
28353;SDS011;15603;50.878;8.036;2023-03-20T11:56:52;12.70;;;3.15;;
28353;SDS011;15603;50.878;8.036;2023-03-20T11:59:21;13.68;;;2.72;;
28353;SDS011;15603;50.878;8.036;2023-03-20T12:01:53;9.30;;;2.55;;
28353;SDS011;15603;50.878;8.036;2023-03-20T12:04:34;7.97;;;2.63;;
28353;SDS011;15603;50.878;8.036;2023-03-20T12:07:15;6.45;;;2.28;;
28353;SDS011;15603;50.878;8.036;2023-03-20T12:09:57;3.78;;;1.50;;
28353;SDS011;15603;50.878;8.036;2023-03-20T12:20:19;5.43;;;2.78;;
28353;SDS011;15603;50.878;8.036;2023-03-20T12:28:35;9.38;;;2.25;;
28353;SDS011;15603;50.878;8.036;2023-03-20T12:31:19;6.28;;;2.30;;
28353;SDS011;15603;50.878;8.036;2023-03-20T12:36:19;5.13;;;2.83;;
28353;SDS011;15603;50.878;8.036;2023-03-20T12:38:54;9.10;;;2.80;;
28353;SDS011;15603;50.878;8.036;2023-03-20T12:41:25;10.95;;;2.90;;
28353;SDS011;15603;50.878;8.036;2023-03-20T12:46:42;6.35;;;2.85;;
28353;SDS011;15603;50.878;8.036;2023-03-20T12:51:56;5.00;;;2.33;;
28353;SDS011;15603;50.878;8.036;2023-03-20T12:57:07;7.32;;;3.10;;
28353;SDS011;15603;50.878;8.036;2023-03-20T13:02:33;4.95;;;2.72;;
28353;SDS011;15603;50.878;8.036;2023-03-20T13:19:18;9.70;;;2.70;;
28353;SDS011;15603;50.878;8.036;2023-03-20T13:26:59;4.43;;;2.75;;
28353;SDS011;15603;50.878;8.036;2023-03-20T13:37:24;8.07;;;2.88;;
28353;SDS011;15603;50.878;8.036;2023-03-20T13:40:21;5.57;;;2.67;;
28353;SDS011;15603;50.878;8.036;2023-03-20T13:45:38;8.38;;;2.88;;
28353;SDS011;15603;50.878;8.036;2023-03-20T13:53:50;9.65;;;3.35;;
28353;SDS011;15603;50.878;8.036;2023-03-20T14:05:01;8.43;;;3.20;;
28353;SDS011;15603;50.878;8.036;2023-03-20T14:07:37;7.88;;;3.15;;
28353;SDS011;15603;50.878;8.036;2023-03-20T14:12:53;9.85;;;3.38;;
28353;SDS011;15603;50.878;8.036;2023-03-20T14:15:26;8.32;;;3.22;;
28353;SDS011;15603;50.878;8.036;2023-03-20T14:17:57;10.05;;;3.83;;
28353;SDS011;15603;50.878;8.036;2023-03-20T14:20:32;6.30;;;3.45;;
28353;SDS011;15603;50.878;8.036;2023-03-20T14:23:03;9.02;;;3.95;;
28353;SDS011;15603;50.878;8.036;2023-03-20T14:25:33;8.18;;;3.35;;
28353;SDS011;15603;50.878;8.036;2023-03-20T14:28:08;7.75;;;3.58;;
28353;SDS011;15603;50.878;8.036;2023-03-20T14:30:54;5.88;;;3.35;;
28353;SDS011;15603;50.878;8.036;2023-03-20T14:33:41;6.60;;;3.25;;
28353;SDS011;15603;50.878;8.036;2023-03-20T14:36:11;8.07;;;3.72;;
28353;SDS011;15603;50.878;8.036;2023-03-20T14:39:31;8.60;;;3.20;;
28353;SDS011;15603;50.878;8.036;2023-03-20T14:41:58;12.48;;;4.25;;
28353;SDS011;15603;50.878;8.036;2023-03-20T14:52:59;15.52;;;4.35;;
28353;SDS011;15603;50.878;8.036;2023-03-20T14:55:30;6.38;;;3.58;;
28353;SDS011;15603;50.878;8.036;2023-03-20T14:58:03;10.32;;;4.25;;
28353;SDS011;15603;50.878;8.036;2023-03-20T15:00:51;12.50;;;3.88;;
28353;SDS011;15603;50.878;8.036;2023-03-20T15:03:18;8.80;;;3.40;;
28353;SDS011;15603;50.878;8.036;2023-03-20T15:05:45;8.02;;;3.55;;
28353;SDS011;15603;50.878;8.036;2023-03-20T15:08:16;7.75;;;3.63;;
28353;SDS011;15603;50.878;8.036;2023-03-20T15:10:50;5.05;;;2.63;;
28353;SDS011;15603;50.878;8.036;2023-03-20T15:13:20;11.00;;;3.00;;
28353;SDS011;15603;50.878;8.036;2023-03-20T15:15:57;8.43;;;2.78;;
28353;SDS011;15603;50.878;8.036;2023-03-20T15:18:35;9.30;;;2.47;;
28353;SDS011;15603;50.878;8.036;2023-03-20T15:21:49;9.77;;;3.20;;
28353;SDS011;15603;50.878;8.036;2023-03-20T15:24:02;8.80;;;2.75;;
28353;SDS011;15603;50.878;8.036;2023-03-20T15:26:31;7.07;;;3.03;;
28353;SDS011;15603;50.878;8.036;2023-03-20T15:29:00;4.80;;;2.80;;
28353;SDS011;15603;50.878;8.036;2023-03-20T15:31:30;7.35;;;3.08;;
28353;SDS011;15603;50.878;8.036;2023-03-20T15:34:01;4.82;;;2.33;;
28353;SDS011;15603;50.878;8.036;2023-03-20T15:36:32;7.70;;;3.38;;
28353;SDS011;15603;50.878;8.036;2023-03-20T15:39:24;13.32;;;2.95;;
28353;SDS011;15603;50.878;8.036;2023-03-20T15:41:56;6.80;;;3.13;;
28353;SDS011;15603;50.878;8.036;2023-03-20T15:44:33;8.23;;;2.92;;
28353;SDS011;15603;50.878;8.036;2023-03-20T15:47:03;9.30;;;3.42;;
28353;SDS011;15603;50.878;8.036;2023-03-20T15:49:39;9.50;;;3.00;;
28353;SDS011;15603;50.878;8.036;2023-03-20T15:52:29;5.55;;;2.67;;
28353;SDS011;15603;50.878;8.036;2023-03-20T15:54:55;14.65;;;3.30;;
28353;SDS011;15603;50.878;8.036;2023-03-20T15:57:25;8.18;;;2.35;;
28353;SDS011;15603;50.878;8.036;2023-03-20T16:00:05;10.05;;;2.85;;
28353;SDS011;15603;50.878;8.036;2023-03-20T16:02:35;7.57;;;2.80;;
28353;SDS011;15603;50.878;8.036;2023-03-20T16:05:03;6.57;;;2.67;;
28353;SDS011;15603;50.878;8.036;2023-03-20T16:07:37;11.02;;;3.00;;
28353;SDS011;15603;50.878;8.036;2023-03-20T16:12:51;7.45;;;2.58;;
28353;SDS011;15603;50.878;8.036;2023-03-20T16:15:26;10.52;;;2.53;;
28353;SDS011;15603;50.878;8.036;2023-03-20T16:17:58;7.47;;;2.47;;
28353;SDS011;15603;50.878;8.036;2023-03-20T16:20:28;6.38;;;2.17;;
28353;SDS011;15603;50.878;8.036;2023-03-20T16:23:03;6.75;;;2.17;;
28353;SDS011;15603;50.878;8.036;2023-03-20T16:25:33;8.45;;;2.25;;
28353;SDS011;15603;50.878;8.036;2023-03-20T16:28:02;9.25;;;2.20;;
28353;SDS011;15603;50.878;8.036;2023-03-20T16:30:33;4.93;;;2.10;;
28353;SDS011;15603;50.878;8.036;2023-03-20T16:33:05;8.77;;;2.50;;
28353;SDS011;15603;50.878;8.036;2023-03-20T16:35:39;5.47;;;2.30;;
28353;SDS011;15603;50.878;8.036;2023-03-20T16:38:23;5.15;;;2.15;;
28353;SDS011;15603;50.878;8.036;2023-03-20T16:40:53;8.82;;;2.03;;
28353;SDS011;15603;50.878;8.036;2023-03-20T16:43:24;9.38;;;2.08;;
28353;SDS011;15603;50.878;8.036;2023-03-20T16:45:56;15.57;;;2.70;;
28353;SDS011;15603;50.878;8.036;2023-03-20T16:48:31;9.10;;;1.90;;
28353;SDS011;15603;50.878;8.036;2023-03-20T16:51:00;5.88;;;1.83;;
28353;SDS011;15603;50.878;8.036;2023-03-20T16:53:39;8.00;;;2.10;;
28353;SDS011;15603;50.878;8.036;2023-03-20T16:56:11;9.13;;;2.00;;
28353;SDS011;15603;50.878;8.036;2023-03-20T16:58:40;9.25;;;2.35;;
28353;SDS011;15603;50.878;8.036;2023-03-20T17:01:18;6.60;;;2.17;;
28353;SDS011;15603;50.878;8.036;2023-03-20T17:03:54;8.13;;;2.00;;
28353;SDS011;15603;50.878;8.036;2023-03-20T17:06:27;7.15;;;2.15;;
28353;SDS011;15603;50.878;8.036;2023-03-20T17:09:18;3.40;;;1.35;;
28353;SDS011;15603;50.878;8.036;2023-03-20T17:14:52;10.10;;;1.65;;
28353;SDS011;15603;50.878;8.036;2023-03-20T17:17:20;4.57;;;1.75;;
28353;SDS011;15603;50.878;8.036;2023-03-20T17:19:48;11.40;;;2.38;;
28353;SDS011;15603;50.878;8.036;2023-03-20T17:22:22;4.15;;;1.38;;
28353;SDS011;15603;50.878;8.036;2023-03-20T17:24:51;13.35;;;2.05;;
28353;SDS011;15603;50.878;8.036;2023-03-20T17:27:19;9.18;;;1.60;;
28353;SDS011;15603;50.878;8.036;2023-03-20T17:29:47;4.15;;;1.77;;
28353;SDS011;15603;50.878;8.036;2023-03-20T17:32:20;5.60;;;2.00;;
28353;SDS011;15603;50.878;8.036;2023-03-20T17:34:51;5.15;;;1.98;;
28353;SDS011;15603;50.878;8.036;2023-03-20T17:37:23;6.93;;;1.52;;
28353;SDS011;15603;50.878;8.036;2023-03-20T17:39:55;7.60;;;1.60;;
28353;SDS011;15603;50.878;8.036;2023-03-20T17:42:23;10.18;;;1.63;;